createdAt,value
2024-02-03T00:00:16.838Z,100947.44
2024-02-03T00:00:52.946Z,100953.53
2024-02-03T00:01:28.906Z,100949.25
2024-02-03T00:02:02.456Z,100950.97
2024-02-03T00:02:39.092Z,100944.00
2024-02-03T00:03:12.863Z,100947.53
2024-02-03T00:03:49.119Z,100944.91
2024-02-03T00:04:22.852Z,100954.47
2024-02-03T00:04:56.271Z,100947.53
2024-02-03T00:05:29.676Z,100938.78
2024-02-03T00:06:06.277Z,100954.63
2024-02-03T00:06:39.738Z,100946.75
2024-02-03T00:07:13.127Z,100944.03
2024-02-03T00:07:46.657Z,100947.56
2024-02-03T00:08:19.983Z,100945.88
2024-02-03T00:08:53.555Z,100944.94
2024-02-03T00:09:26.979Z,100940.50
2024-02-03T00:10:06.598Z,100942.34
2024-02-03T00:10:40.266Z,100940.63
2024-02-03T00:11:14.662Z,100940.59
2024-02-03T00:11:48.134Z,100942.28
2024-02-03T00:12:26.544Z,100938.78
2024-02-03T00:13:01.040Z,100935.19
2024-02-03T00:13:37.419Z,100946.63
2024-02-03T00:14:11.310Z,100944.00
2024-02-03T00:14:44.607Z,100939.56
2024-02-03T00:15:18.011Z,100938.72
2024-02-03T00:16:00.139Z,100940.47
2024-02-03T00:16:36.432Z,100943.94
2024-02-03T00:17:09.880Z,100935.16
2024-02-03T00:17:44.116Z,100947.41
2024-02-03T00:18:18.038Z,100936.06
2024-02-03T00:18:51.628Z,100932.53
2024-02-03T00:19:25.187Z,100931.75
2024-02-03T00:19:59.827Z,100928.22
2024-02-03T00:20:33.173Z,100929.09
2024-02-03T00:21:10.287Z,100930.81
2024-02-03T00:21:47.348Z,100929.91
2024-02-03T00:22:20.951Z,100926.44
2024-02-03T00:22:56.966Z,100923.78
2024-02-03T00:23:31.645Z,100922.97
2024-02-03T00:24:05.593Z,100922.91
2024-02-03T00:24:39.116Z,100935.19
2024-02-03T00:25:13.670Z,100929.94
2024-02-03T00:25:46.973Z,100917.75
2024-02-03T00:26:20.469Z,100917.72
2024-02-03T00:26:54.822Z,100920.34
2024-02-03T00:27:28.281Z,100912.44
2024-02-03T00:28:02.103Z,100915.06
2024-02-03T00:28:41.638Z,100915.13
2024-02-03T00:29:14.958Z,100917.72
2024-02-03T00:29:48.278Z,100919.44
2024-02-03T00:30:21.565Z,100917.75
2024-02-03T00:30:54.963Z,100915.97
2024-02-03T00:31:28.354Z,100912.44
2024-02-03T00:32:02.968Z,100913.31
2024-02-03T00:32:36.668Z,100910.66
2024-02-03T00:33:10.385Z,100906.41
2024-02-03T00:33:44.731Z,100910.81
2024-02-03T00:34:18.194Z,100908.19
2024-02-03T00:34:54.784Z,100910.78
2024-02-03T00:35:28.386Z,100910.72
2024-02-03T00:36:01.777Z,100907.22
2024-02-03T00:36:35.245Z,100908.97
2024-02-03T00:37:12.505Z,100909.78
2024-02-03T00:37:45.751Z,100903.66
2024-02-03T00:38:19.153Z,100905.44
2024-02-03T00:38:53.425Z,100901.03
2024-02-03T00:39:26.937Z,100895.72
2024-02-03T00:40:00.538Z,100898.34
2024-02-03T00:40:33.913Z,100901.06
2024-02-03T00:41:11.250Z,100900.13
2024-02-03T00:41:44.647Z,100897.50
2024-02-03T00:42:19.717Z,100909.78
2024-02-03T00:42:55.988Z,100901.00
2024-02-03T00:43:29.454Z,100901.91
2024-02-03T00:44:05.133Z,100905.34
2024-02-03T00:44:39.776Z,100901.00
2024-02-03T00:45:14.940Z,100901.00
2024-02-03T00:45:48.419Z,100895.69
2024-02-03T00:46:23.234Z,100896.59
2024-02-03T00:46:59.406Z,100901.75
2024-02-03T00:47:35.515Z,100901.75
2024-02-03T00:48:09.325Z,100898.28
2024-02-03T00:48:43.061Z,100902.66
2024-02-03T00:49:16.790Z,100900.91
2024-02-03T00:49:52.086Z,100899.09
2024-02-03T00:50:25.610Z,100903.44
2024-02-03T00:50:59.645Z,100911.41
2024-02-03T00:51:33.074Z,100898.34
2024-02-03T00:52:06.733Z,100912.31
2024-02-03T00:52:41.316Z,100912.28
2024-02-03T00:53:14.655Z,100903.53
2024-02-03T00:53:50.947Z,100907.03
2024-02-03T00:54:24.483Z,100901.75
2024-02-03T00:54:58.008Z,100899.97
2024-02-03T00:55:31.329Z,100901.81
2024-02-03T00:56:05.561Z,100904.47
2024-02-03T00:56:41.507Z,100903.50
2024-02-03T00:57:14.883Z,100898.22
2024-02-03T00:57:48.320Z,100892.97
2024-02-03T00:58:22.093Z,100899.16
2024-02-03T00:58:55.746Z,100895.63
2024-02-03T00:59:29.247Z,100898.28
2024-02-03T01:00:04.903Z,100893.00
2024-02-03T01:01:54.780Z,100898.19
2024-02-03T01:02:28.316Z,100891.25
2024-02-03T01:03:01.774Z,100890.38
2024-02-03T01:03:35.335Z,100894.69
2024-02-03T01:04:09.066Z,100891.25
2024-02-03T01:04:45.899Z,100891.25
2024-02-03T01:05:19.985Z,100892.88
2024-02-03T01:05:54.176Z,100894.69
2024-02-03T01:06:27.838Z,100882.47
2024-02-03T01:07:02.886Z,100891.34
2024-02-03T01:07:36.259Z,100887.75
2024-02-03T01:08:09.568Z,100880.72
2024-02-03T01:08:45.850Z,100877.25
2024-02-03T01:09:19.794Z,100885.94
2024-02-03T01:09:53.549Z,100877.38
2024-02-03T01:10:27.964Z,100883.44
2024-02-03T01:11:01.593Z,100877.34
2024-02-03T01:11:35.930Z,100873.84
2024-02-03T01:12:09.440Z,100878.19
2024-02-03T01:12:45.776Z,100875.66
2024-02-03T01:13:19.220Z,100877.34
2024-02-03T01:13:55.794Z,100879.00
2024-02-03T01:14:32.685Z,100876.38
2024-02-03T01:15:06.589Z,100868.50
2024-02-03T01:15:40.057Z,100862.28
2024-02-03T01:16:13.601Z,100875.47
2024-02-03T01:16:47.118Z,100878.06
2024-02-03T01:17:23.752Z,100871.06
2024-02-03T01:17:58.382Z,100873.66
2024-02-03T01:18:34.255Z,100873.63
2024-02-03T01:19:08.674Z,100882.41
2024-02-03T01:19:44.865Z,100871.88
2024-02-03T01:20:20.075Z,100875.47
2024-02-03T01:20:53.431Z,100875.44
2024-02-03T01:21:26.872Z,100874.47
2024-02-03T01:22:03.284Z,100876.25
2024-02-03T01:22:36.609Z,100876.28
2024-02-03T01:23:13.131Z,100878.06
2024-02-03T01:23:49.378Z,100880.59
2024-02-03T01:24:25.759Z,100878.81
2024-02-03T01:24:59.130Z,100884.09
2024-02-03T01:25:36.842Z,100875.44
2024-02-03T01:26:12.900Z,100892.03
2024-02-03T01:26:46.381Z,100885.84
2024-02-03T01:27:19.985Z,100889.34
2024-02-03T01:27:53.638Z,100884.03
2024-02-03T01:28:26.996Z,100884.91
2024-02-03T01:29:00.417Z,100891.06
2024-02-03T01:29:35.114Z,100889.34
2024-02-03T01:30:09.362Z,100883.22
2024-02-03T01:30:43.016Z,100885.81
2024-02-03T01:31:16.381Z,100885.75
2024-02-03T01:31:49.720Z,100890.94
2024-02-03T01:32:23.483Z,100882.22
2024-02-03T01:32:56.918Z,100880.50
2024-02-03T01:33:32.745Z,100883.03
2024-02-03T01:34:07.083Z,100884.00
2024-02-03T01:34:42.050Z,100878.69
2024-02-03T01:35:15.429Z,100880.41
2024-02-03T01:35:48.844Z,100878.69
2024-02-03T01:36:22.233Z,100880.41
2024-02-03T01:36:55.692Z,100873.38
2024-02-03T01:37:29.113Z,100875.16
2024-02-03T01:38:02.969Z,100869.91
2024-02-03T01:38:36.348Z,100876.88
2024-02-03T01:39:11.470Z,100866.31
2024-02-03T01:39:45.121Z,100873.28
2024-02-03T01:40:18.659Z,100873.25
2024-02-03T01:40:52.084Z,100865.41
2024-02-03T01:41:25.419Z,100873.19
2024-02-03T01:41:58.747Z,100867.78
2024-02-03T01:42:32.274Z,100859.00
2024-02-03T01:43:09.425Z,100873.81
2024-02-03T01:43:45.590Z,100877.25
2024-02-03T01:44:19.421Z,100859.66
2024-02-03T01:44:52.928Z,100865.69
2024-02-03T01:45:26.274Z,100856.88
2024-02-03T01:46:00.420Z,100862.09
2024-02-03T01:46:34.073Z,100859.34
2024-02-03T01:47:07.505Z,100856.63
2024-02-03T01:47:42.697Z,100853.06
2024-02-03T01:48:19.516Z,100853.00
2024-02-03T01:48:53.117Z,100856.41
2024-02-03T01:49:30.707Z,100848.53
2024-02-03T01:50:05.893Z,100844.16
2024-02-03T01:50:42.862Z,100844.06
2024-02-03T01:51:19.758Z,100848.41
2024-02-03T01:51:54.035Z,100845.78
2024-02-03T01:52:27.576Z,100850.13
2024-02-03T01:53:04.643Z,100842.97
2024-02-03T01:53:38.708Z,100838.63
2024-02-03T01:54:13.287Z,100845.50
2024-02-03T01:54:48.809Z,100848.97
2024-02-03T01:55:22.649Z,100838.47
2024-02-03T01:56:00.042Z,100838.53
2024-02-03T01:56:37.147Z,100849.91
2024-02-03T01:57:12.603Z,100841.91
2024-02-03T01:57:46.956Z,100837.44
2024-02-03T01:58:24.165Z,100838.38
2024-02-03T01:58:57.608Z,100833.94
2024-02-03T01:59:32.190Z,100840.19
2024-02-03T02:00:07.119Z,100827.84
2024-02-03T02:00:44.164Z,100827.75
2024-02-03T02:01:17.788Z,100829.50
2024-02-03T02:01:52.429Z,100825.13
2024-02-03T02:02:28.613Z,100825.94
2024-02-03T02:03:02.188Z,100832.97
2024-02-03T02:03:36.599Z,100837.44
2024-02-03T02:04:11.437Z,100821.63
2024-02-03T02:04:44.928Z,100831.31
2024-02-03T02:05:18.556Z,100824.22
2024-02-03T02:05:54.525Z,100828.56
2024-02-03T02:06:30.897Z,100831.19
2024-02-03T02:07:05.134Z,100824.16
2024-02-03T02:07:47.620Z,100827.59
2024-02-03T02:08:31.622Z,100827.53
2024-02-03T02:09:05.422Z,100820.63
2024-02-03T02:09:38.974Z,100821.47
2024-02-03T02:10:13.857Z,100823.94
2024-02-03T02:10:47.400Z,100822.09
2024-02-03T02:11:22.417Z,100813.31
2024-02-03T02:11:57.043Z,100817.81
2024-02-03T02:12:30.611Z,100824.06
2024-02-03T02:13:04.303Z,100813.63
2024-02-03T02:13:37.615Z,100819.81
2024-02-03T02:14:14.591Z,100817.00
2024-02-03T02:14:48.398Z,100821.25
2024-02-03T02:15:21.820Z,100811.69
2024-02-03T02:15:58.432Z,100803.00
2024-02-03T02:16:31.919Z,100807.34
2024-02-03T02:17:05.540Z,100810.03
2024-02-03T02:17:41.869Z,100809.91
2024-02-03T02:18:15.289Z,100810.03
2024-02-03T02:18:49.325Z,100798.63
2024-02-03T02:19:23.718Z,100799.56
2024-02-03T02:20:12.462Z,100799.56
2024-02-03T02:20:45.891Z,100796.09
2024-02-03T02:21:20.458Z,100801.44
2024-02-03T02:21:54.006Z,100805.03
2024-02-03T02:22:27.339Z,100801.72
2024-02-03T02:23:00.801Z,100796.47
2024-02-03T02:23:34.233Z,100810.53
2024-02-03T02:24:08.316Z,100806.25
2024-02-03T02:24:41.842Z,100804.47
2024-02-03T02:25:15.294Z,100796.63
2024-02-03T02:25:48.535Z,100798.50
2024-02-03T02:26:22.018Z,100790.56
2024-02-03T02:26:55.556Z,100800.16
2024-02-03T02:27:28.933Z,100787.88
2024-02-03T02:28:02.504Z,100794.91
2024-02-03T02:28:35.947Z,100787.81
2024-02-03T02:29:09.884Z,100787.81
2024-02-03T02:29:44.565Z,100797.53
2024-02-03T02:30:17.975Z,100783.63
2024-02-03T02:30:51.638Z,100789.00
2024-02-03T02:31:25.100Z,100795.03
2024-02-03T02:32:01.612Z,100797.66
2024-02-03T02:32:34.937Z,100796.84
2024-02-03T02:33:11.659Z,100794.25
2024-02-03T02:33:45.420Z,100796.84
2024-02-03T02:34:19.036Z,100791.59
2024-02-03T02:34:52.668Z,100786.22
2024-02-03T02:35:29.250Z,100787.97
2024-02-03T02:36:02.674Z,100790.72
2024-02-03T02:36:36.147Z,100788.94
2024-02-03T02:37:11.786Z,100792.44
2024-02-03T02:37:45.217Z,100794.28
2024-02-03T02:38:22.314Z,100791.59
2024-02-03T02:38:55.652Z,100790.72
2024-02-03T02:39:29.067Z,100789.00
2024-02-03T02:40:02.645Z,100793.31
2024-02-03T02:40:36.152Z,100791.59
2024-02-03T02:41:13.173Z,100794.25
2024-02-03T02:41:48.078Z,100798.78
2024-02-03T02:42:24.704Z,100790.84
2024-02-03T02:42:58.198Z,100809.31
2024-02-03T02:43:31.967Z,100790.06
2024-02-03T02:44:08.326Z,100785.78
2024-02-03T02:44:41.836Z,100791.16
2024-02-03T02:45:16.070Z,100784.03
2024-02-03T02:45:50.950Z,100791.03
2024-02-03T02:46:30.600Z,100783.22
2024-02-03T02:47:06.665Z,100788.38
2024-02-03T02:47:40.048Z,100785.88
2024-02-03T02:48:13.636Z,100786.75
2024-02-03T02:48:50.254Z,100789.47
2024-02-03T02:49:24.147Z,100779.66
2024-02-03T02:49:57.737Z,100791.22
2024-02-03T02:50:32.592Z,100793.72
2024-02-03T02:51:06.151Z,100793.72
2024-02-03T02:51:39.614Z,100792.00
2024-02-03T02:52:13.300Z,100789.41
2024-02-03T02:52:46.643Z,100789.44
2024-02-03T02:53:20.115Z,100794.75
2024-02-03T02:53:54.928Z,100793.84
2024-02-03T02:54:28.280Z,100793.88
2024-02-03T02:55:03.182Z,100799.16
2024-02-03T02:55:36.843Z,100788.69
2024-02-03T02:56:14.265Z,100795.59
2024-02-03T02:56:48.830Z,100799.25
2024-02-03T02:57:22.164Z,100801.91
2024-02-03T02:57:58.407Z,100800.06
2024-02-03T02:58:31.737Z,100798.38
2024-02-03T02:59:05.960Z,100799.19
2024-02-03T02:59:39.312Z,100789.50
2024-02-03T03:00:16.358Z,100798.38
2024-02-03T03:00:50.027Z,100796.63
2024-02-03T03:01:24.190Z,100801.94
2024-02-03T03:02:00.274Z,100795.97
2024-02-03T03:02:36.701Z,100793.44
2024-02-03T03:03:11.627Z,100799.47
2024-02-03T03:03:46.337Z,100799.41
2024-02-03T03:04:21.570Z,100796.06
2024-02-03T03:04:55.211Z,100795.16
2024-02-03T03:05:28.619Z,100796.03
2024-02-03T03:06:02.038Z,100793.38
2024-02-03T03:06:35.817Z,100783.84
2024-02-03T03:07:12.487Z,100786.38
2024-02-03T03:07:46.041Z,100794.22
2024-02-03T03:08:19.410Z,100788.13
2024-02-03T03:08:52.707Z,100782.09
2024-02-03T03:09:27.339Z,100779.47
2024-02-03T03:10:00.897Z,100782.09
2024-02-03T03:10:34.357Z,100779.53
2024-02-03T03:11:07.736Z,100779.47
2024-02-03T03:11:41.056Z,100778.78
2024-02-03T03:12:14.575Z,100776.97
2024-02-03T03:12:48.016Z,100777.97
2024-02-03T03:13:22.992Z,100780.44
2024-02-03T03:13:57.692Z,100770.84
2024-02-03T03:14:31.334Z,100783.06
2024-02-03T03:15:05.524Z,100786.66
2024-02-03T03:15:39.210Z,100780.59
2024-02-03T03:16:15.451Z,100780.59
2024-02-03T03:16:53.447Z,100770.09
2024-02-03T03:17:26.812Z,100771.91
2024-02-03T03:18:00.570Z,100766.53
2024-02-03T03:18:34.097Z,100778.06
2024-02-03T03:19:07.837Z,100768.47
2024-02-03T03:19:42.370Z,100770.28
2024-02-03T03:20:19.742Z,100771.13
2024-02-03T03:20:53.066Z,100776.34
2024-02-03T03:21:26.484Z,100770.19
2024-02-03T03:22:00.855Z,100780.69
2024-02-03T03:22:34.550Z,100778.97
2024-02-03T03:23:08.700Z,100782.44
2024-02-03T03:23:42.526Z,100772.00
2024-02-03T03:24:15.843Z,100774.63
2024-02-03T03:24:50.228Z,100770.31
2024-02-03T03:25:23.773Z,100772.00
2024-02-03T03:25:57.700Z,100772.06
2024-02-03T03:26:32.333Z,100775.63
2024-02-03T03:27:06.334Z,100763.34
2024-02-03T03:27:39.791Z,100782.69
2024-02-03T03:28:13.460Z,100767.84
2024-02-03T03:28:46.952Z,100768.66
2024-02-03T03:29:20.193Z,100771.28
2024-02-03T03:29:53.679Z,100784.53
2024-02-03T03:30:27.307Z,100780.91
2024-02-03T03:31:00.720Z,100776.50
2024-02-03T03:31:34.456Z,100784.38
2024-02-03T03:32:08.060Z,100787.06
2024-02-03T03:32:43.253Z,100779.31
2024-02-03T03:33:16.967Z,100781.91
2024-02-03T03:33:53.124Z,100781.09
2024-02-03T03:34:26.673Z,100787.22
2024-02-03T03:35:01.279Z,100785.38
2024-02-03T03:35:35.268Z,100786.25
2024-02-03T03:36:12.671Z,100784.47
2024-02-03T03:36:46.085Z,100781.03
2024-02-03T03:37:19.500Z,100782.00
2024-02-03T03:37:52.990Z,100781.00
2024-02-03T03:38:28.745Z,100782.00
2024-02-03T03:39:04.684Z,100776.78
2024-02-03T03:39:38.080Z,100779.38
2024-02-03T03:40:12.782Z,100779.41
2024-02-03T03:40:47.134Z,100774.09
2024-02-03T03:41:20.486Z,100770.66
2024-02-03T03:41:55.555Z,100781.13
2024-02-03T03:42:30.363Z,100781.16
2024-02-03T03:43:06.881Z,100777.63
2024-02-03T03:43:43.099Z,100776.00
2024-02-03T03:44:16.428Z,100776.03
2024-02-03T03:44:49.950Z,100773.34
2024-02-03T03:45:23.500Z,100779.41
2024-02-03T03:45:57.297Z,100775.03
2024-02-03T03:46:30.749Z,100770.72
2024-02-03T03:47:05.286Z,100779.41
2024-02-03T03:47:38.666Z,100782.03
2024-02-03T03:48:13.903Z,100777.69
2024-02-03T03:48:47.475Z,100773.28
2024-02-03T03:49:20.991Z,100775.06
2024-02-03T03:49:54.587Z,100780.41
2024-02-03T03:50:28.227Z,100776.88
2024-02-03T03:51:01.649Z,100777.75
2024-02-03T03:51:35.009Z,100778.59
2024-02-03T03:52:08.530Z,100782.03
2024-02-03T03:52:41.884Z,100779.50
2024-02-03T03:53:15.288Z,100778.63
2024-02-03T03:53:48.620Z,100784.81
2024-02-03T03:54:25.075Z,100788.19
2024-02-03T03:54:58.706Z,100790.06
2024-02-03T03:55:32.217Z,100787.47
2024-02-03T03:56:07.560Z,100786.53
2024-02-03T03:56:40.969Z,100786.63
2024-02-03T03:57:17.420Z,100790.06
2024-02-03T03:57:53.381Z,100784.81
2024-02-03T03:58:33.395Z,100786.63
2024-02-03T03:59:06.705Z,100786.66
2024-02-03T03:59:40.869Z,100785.00
2024-02-03T04:00:17.290Z,100788.53
2024-02-03T04:00:50.938Z,100781.44
2024-02-03T04:01:24.372Z,100779.69
2024-02-03T04:01:57.901Z,100783.13
2024-02-03T04:02:31.202Z,100783.13
2024-02-03T04:03:04.987Z,100769.34
2024-02-03T04:03:38.594Z,100779.78
2024-02-03T04:04:13.258Z,100781.53
2024-02-03T04:04:46.969Z,100781.53
2024-02-03T04:05:23.075Z,100780.53
2024-02-03T04:05:56.602Z,100791.97
2024-02-03T04:06:30.371Z,100783.13
2024-02-03T04:07:06.748Z,100784.84
2024-02-03T04:07:40.596Z,100786.66
2024-02-03T04:08:14.000Z,100781.41
2024-02-03T04:08:47.523Z,100783.13
2024-02-03T04:09:23.813Z,100784.81
2024-02-03T04:09:57.722Z,100779.69
2024-02-03T04:10:31.158Z,100771.81
2024-02-03T04:11:05.079Z,100778.88
2024-02-03T04:11:39.693Z,100778.00
2024-02-03T04:12:13.749Z,100771.91
2024-02-03T04:12:47.193Z,100778.88
2024-02-03T04:13:20.702Z,100770.94
2024-02-03T04:13:54.069Z,100775.38
2024-02-03T04:14:27.397Z,100777.16
2024-02-03T04:15:02.914Z,100772.75
2024-02-03T04:15:41.560Z,100770.94
2024-02-03T04:16:15.482Z,100771.72
2024-02-03T04:16:54.605Z,100775.19
2024-02-03T04:17:28.127Z,100769.03
2024-02-03T04:18:04.844Z,100781.28
2024-02-03T04:18:38.240Z,100770.72
2024-02-03T04:19:14.601Z,100774.16
2024-02-03T04:19:48.875Z,100780.97
2024-02-03T04:20:26.909Z,100775.59
2024-02-03T04:21:00.387Z,100774.63
2024-02-03T04:21:34.749Z,100763.81
2024-02-03T04:22:09.384Z,100762.75
2024-02-03T04:22:42.722Z,100767.84
2024-02-03T04:23:16.149Z,100763.34
2024-02-03T04:23:49.503Z,100758.84
2024-02-03T04:24:22.968Z,100769.16
2024-02-03T04:24:59.157Z,100762.81
2024-02-03T04:25:32.545Z,100763.59
2024-02-03T04:26:06.045Z,100767.00
2024-02-03T04:26:39.631Z,100766.91
2024-02-03T04:27:14.568Z,100763.16
2024-02-03T04:27:50.921Z,100767.38
2024-02-03T04:28:24.400Z,100781.25
2024-02-03T04:28:57.818Z,100781.94
2024-02-03T04:29:31.157Z,100769.63
2024-02-03T04:30:21.681Z,100775.66
2024-02-03T04:30:59.855Z,100780.69
2024-02-03T04:31:33.539Z,100765.63
2024-02-03T04:32:09.621Z,100782.16
2024-02-03T04:32:44.053Z,100789.13
2024-02-03T04:33:17.593Z,100783.75
2024-02-03T04:33:54.091Z,100775.75
2024-02-03T04:34:27.654Z,100774.75
2024-02-03T04:35:01.389Z,100779.94
2024-02-03T04:35:35.625Z,100771.97
2024-02-03T04:36:09.349Z,100776.31
2024-02-03T04:36:42.807Z,100778.00
2024-02-03T04:37:18.659Z,100766.53
2024-02-03T04:37:53.309Z,100772.59
2024-02-03T04:38:26.624Z,100764.69
2024-02-03T04:39:03.300Z,100774.25
2024-02-03T04:39:36.679Z,100764.53
2024-02-03T04:40:11.612Z,100769.81
2024-02-03T04:40:45.265Z,100773.25
2024-02-03T04:41:25.854Z,100772.22
2024-02-03T04:41:59.191Z,100768.69
2024-02-03T04:42:33.428Z,100769.44
2024-02-03T04:43:06.752Z,100770.41
2024-02-03T04:43:40.513Z,100762.56
2024-02-03T04:44:13.864Z,100762.44
2024-02-03T04:44:47.192Z,100763.19
2024-02-03T04:45:22.736Z,100758.75
2024-02-03T04:45:56.135Z,100760.53
2024-02-03T04:46:30.178Z,100761.38
2024-02-03T04:47:03.704Z,100756.25
2024-02-03T04:47:37.814Z,100753.50
2024-02-03T04:48:11.666Z,100756.88
2024-02-03T04:48:48.052Z,100762.09
2024-02-03T04:49:21.525Z,100755.84
2024-02-03T04:49:55.201Z,100755.00
2024-02-03T04:50:29.721Z,100758.47
2024-02-03T04:51:03.127Z,100756.78
2024-02-03T04:51:36.457Z,100756.75
2024-02-03T04:52:12.780Z,100749.66
2024-02-03T04:52:46.143Z,100762.03
2024-02-03T04:53:19.432Z,100763.75
2024-02-03T04:53:52.929Z,100757.63
2024-02-03T04:54:26.303Z,100756.84
2024-02-03T04:54:59.682Z,100760.38
2024-02-03T04:55:32.967Z,100767.47
2024-02-03T04:56:08.407Z,100760.38
2024-02-03T04:56:41.755Z,100767.38
2024-02-03T04:57:16.836Z,100767.31
2024-02-03T04:57:50.256Z,100770.75
2024-02-03T04:58:24.315Z,100776.06
2024-02-03T04:58:57.780Z,100774.28
2024-02-03T04:59:31.249Z,100768.16
2024-02-03T05:00:05.900Z,100769.94
2024-02-03T05:00:39.684Z,100769.03
2024-02-03T05:01:15.808Z,100769.75
2024-02-03T05:01:49.338Z,100770.69
2024-02-03T05:02:22.828Z,100764.53
2024-02-03T05:02:56.341Z,100772.56
2024-02-03T05:03:29.776Z,100775.09
2024-02-03T05:04:06.953Z,100757.50
2024-02-03T05:04:40.495Z,100756.66
2024-02-03T05:05:13.909Z,100764.56
2024-02-03T05:05:47.234Z,100767.31
2024-02-03T05:06:23.698Z,100769.09
2024-02-03T05:06:58.327Z,100768.97
2024-02-03T05:07:32.975Z,100764.56
2024-02-03T05:08:06.842Z,100770.75
2024-02-03T05:08:40.311Z,100768.91
2024-02-03T05:09:13.681Z,100768.91
2024-02-03T05:09:47.053Z,100774.19
2024-02-03T05:10:20.536Z,100775.34
2024-02-03T05:10:53.800Z,100770.81
2024-02-03T05:11:27.516Z,100770.94
2024-02-03T05:12:00.929Z,100770.81
2024-02-03T05:12:34.746Z,100777.84
2024-02-03T05:13:08.280Z,100770.81
2024-02-03T05:13:41.574Z,100772.47
2024-02-03T05:14:14.899Z,100767.19
2024-02-03T05:14:48.358Z,100772.47
2024-02-03T05:15:24.992Z,100765.53
2024-02-03T05:16:01.505Z,100776.09
2024-02-03T05:16:37.519Z,100781.47
2024-02-03T05:17:11.510Z,100765.66
2024-02-03T05:17:47.842Z,100770.94
2024-02-03T05:18:23.335Z,100775.22
2024-02-03T05:18:57.730Z,100776.09
2024-02-03T05:19:34.800Z,100772.56
2024-02-03T05:20:09.555Z,100778.84
2024-02-03T05:20:43.019Z,100777.94
2024-02-03T05:21:16.626Z,100786.84
2024-02-03T05:21:50.090Z,100768.28
2024-02-03T05:22:23.524Z,100774.38
2024-02-03T05:22:56.850Z,100774.44
2024-02-03T05:23:30.346Z,100782.34
2024-02-03T05:24:03.772Z,100767.38
2024-02-03T05:24:37.183Z,100772.72
2024-02-03T05:25:12.743Z,100769.19
2024-02-03T05:25:48.254Z,100772.66
2024-02-03T05:26:25.955Z,100766.47
2024-02-03T05:26:59.597Z,100770.81
2024-02-03T05:27:33.120Z,100770.09
2024-02-03T05:28:06.846Z,100781.47
2024-02-03T05:28:40.423Z,100770.94
2024-02-03T05:29:14.042Z,100774.38
2024-02-03T05:29:47.353Z,100777.84
2024-02-03T05:30:20.849Z,100783.19
2024-02-03T05:30:55.271Z,100776.28
2024-02-03T05:31:29.165Z,100779.00
2024-02-03T05:32:02.643Z,100782.59
2024-02-03T05:32:37.201Z,100776.34
2024-02-03T05:33:11.677Z,100768.44
2024-02-03T05:33:45.500Z,100780.66
2024-02-03T05:34:19.623Z,100768.31
2024-02-03T05:34:53.273Z,100782.47
2024-02-03T05:35:26.626Z,100774.56
2024-02-03T05:36:01.253Z,100774.56
2024-02-03T05:36:37.592Z,100781.63
2024-02-03T05:37:11.677Z,100772.91
2024-02-03T05:37:45.060Z,100764.09
2024-02-03T05:38:18.580Z,100776.63
2024-02-03T05:38:52.285Z,100756.41
2024-02-03T05:39:25.698Z,100782.56
2024-02-03T05:39:59.180Z,100778.13
2024-02-03T05:40:35.257Z,100774.56
2024-02-03T05:41:08.700Z,100776.34
2024-02-03T05:41:45.229Z,100772.84
2024-02-03T05:42:21.504Z,100778.19
2024-02-03T05:42:56.572Z,100780.97
2024-02-03T05:43:30.020Z,100772.91
2024-02-03T05:44:06.830Z,100771.19
2024-02-03T05:44:40.262Z,100780.03
2024-02-03T05:45:13.851Z,100775.63
2024-02-03T05:45:47.212Z,100774.72
2024-02-03T05:46:20.550Z,100778.13
2024-02-03T05:46:54.161Z,100777.16
2024-02-03T05:47:27.744Z,100776.28
2024-02-03T05:48:01.164Z,100785.09
2024-02-03T05:48:34.695Z,100781.63
2024-02-03T05:49:08.311Z,100774.56
2024-02-03T05:49:42.385Z,100785.09
2024-02-03T05:50:15.948Z,100776.34
2024-02-03T05:50:49.294Z,100785.09
2024-02-03T05:51:23.078Z,100784.19
2024-02-03T05:51:56.566Z,100778.13
2024-02-03T05:52:30.474Z,100778.00
2024-02-03T05:53:08.781Z,100788.75
2024-02-03T05:53:44.496Z,100785.19
2024-02-03T05:54:17.973Z,100771.19
2024-02-03T05:54:53.278Z,100774.69
2024-02-03T05:55:26.830Z,100784.31
2024-02-03T05:56:00.295Z,100771.09
2024-02-03T05:56:40.172Z,100770.34
2024-02-03T05:57:13.874Z,100779.84
2024-02-03T05:57:57.597Z,100773.78
2024-02-03T05:58:31.240Z,100778.19
2024-02-03T05:59:21.683Z,100770.34
2024-02-03T06:00:00.784Z,100772.22
2024-02-03T06:00:34.451Z,100759.94
2024-02-03T06:01:07.978Z,100760.06
2024-02-03T06:01:41.607Z,100764.28
2024-02-03T06:02:18.703Z,100764.28
2024-02-03T06:02:52.060Z,100767.84
2024-02-03T06:03:25.928Z,100772.41
2024-02-03T06:04:01.215Z,100768.09
2024-02-03T06:04:34.663Z,100769.72
2024-02-03T06:05:08.806Z,100766.53
2024-02-03T06:05:58.724Z,100768.25
2024-02-03T06:06:37.137Z,100769.09
2024-02-03T06:07:11.650Z,100773.38
2024-02-03T06:07:48.503Z,100773.25
2024-02-03T06:08:21.920Z,100775.16
2024-02-03T06:08:55.252Z,100773.25
2024-02-03T06:09:31.525Z,100782.16
2024-02-03T06:10:06.367Z,100769.88
2024-02-03T06:10:39.886Z,100786.53
2024-02-03T06:11:14.433Z,100792.63
2024-02-03T06:11:47.878Z,100784.66
2024-02-03T06:12:21.437Z,100794.28
2024-02-03T06:12:54.880Z,100787.28
2024-02-03T06:13:28.337Z,100787.28
2024-02-03T06:14:01.716Z,100786.34
2024-02-03T06:14:36.372Z,100784.66
2024-02-03T06:15:11.683Z,100789.00
2024-02-03T06:15:45.231Z,100790.78
2024-02-03T06:16:18.626Z,100787.28
2024-02-03T06:16:54.995Z,100803.16
2024-02-03T06:17:28.457Z,100795.13
2024-02-03T06:18:02.019Z,100798.63
2024-02-03T06:18:35.391Z,100792.44
2024-02-03T06:19:08.782Z,100815.34
2024-02-03T06:19:44.371Z,100798.56
2024-02-03T06:20:18.671Z,100800.28
2024-02-03T06:20:52.199Z,100801.19
2024-02-03T06:21:25.621Z,100802.91
2024-02-03T06:21:58.963Z,100802.91
2024-02-03T06:22:32.326Z,100805.53
2024-02-03T06:23:05.950Z,100812.53
2024-02-03T06:23:39.366Z,100811.53
2024-02-03T06:24:13.261Z,100820.31
2024-02-03T06:24:46.744Z,100807.91
2024-02-03T06:25:21.401Z,100804.63
2024-02-03T06:25:54.839Z,100804.81
2024-02-03T06:26:31.570Z,100808.25
2024-02-03T06:27:06.601Z,100814.25
2024-02-03T06:27:40.113Z,100816.09
2024-02-03T06:28:15.361Z,100807.25
2024-02-03T06:28:49.338Z,100824.00
2024-02-03T06:29:27.837Z,100821.31
2024-02-03T06:30:09.268Z,100823.81
2024-02-03T06:30:42.857Z,100819.38
2024-02-03T06:31:16.394Z,100823.81
2024-02-03T06:31:51.199Z,100829.09
2024-02-03T06:32:24.940Z,100819.38
2024-02-03T06:32:58.635Z,100827.28
2024-02-03T06:33:32.210Z,100829.00
2024-02-03T06:34:06.129Z,100832.47
2024-02-03T06:34:39.810Z,100830.75
2024-02-03T06:35:14.758Z,100821.91